createdAt,value
2022-11-10T00:00:04.036Z,101.071
2022-11-10T00:01:04.018Z,101.071
2022-11-10T00:02:04.049Z,101.071
2022-11-10T00:03:04.078Z,101.071
2022-11-10T00:04:04.137Z,101.143
2022-11-10T00:05:04.160Z,101.071
2022-11-10T00:06:04.172Z,101.143
2022-11-10T00:07:04.253Z,101.143
2022-11-10T00:08:04.234Z,101
2022-11-10T00:09:04.304Z,101.143
2022-11-10T00:10:04.281Z,101.143
2022-11-10T00:11:04.311Z,101.143
2022-11-10T00:12:04.349Z,101.143
2022-11-10T00:13:04.387Z,101.143
2022-11-10T00:14:04.435Z,101.071
2022-11-10T00:15:04.445Z,101.214
2022-11-10T00:16:04.472Z,101.214
2022-11-10T00:17:04.774Z,101.214
2022-11-10T00:18:04.525Z,101.214
2022-11-10T00:19:04.579Z,101.071
2022-11-10T00:20:04.611Z,101.214
2022-11-10T00:21:04.648Z,101.214
2022-11-10T00:22:04.664Z,101.143
2022-11-10T00:23:04.697Z,101.214
2022-11-10T00:24:04.756Z,101
2022-11-10T00:25:04.817Z,101.214
2022-11-10T00:26:04.817Z,101.071
2022-11-10T00:27:04.825Z,101.214
2022-11-10T00:28:04.869Z,101.214
2022-11-10T00:29:04.893Z,101.214
2022-11-10T00:30:04.928Z,101.214
2022-11-10T00:31:04.972Z,101.071
2022-11-10T00:32:04.982Z,101.214
2022-11-10T00:33:05.018Z,101.143
2022-11-10T00:34:05.045Z,101.214
2022-11-10T00:35:05.098Z,101.214
2022-11-10T00:36:05.099Z,101.214
2022-11-10T00:37:05.131Z,101.214
2022-11-10T00:38:05.163Z,101.143
2022-11-10T00:39:05.200Z,101.143
2022-11-10T00:40:05.350Z,101.286
2022-11-10T00:41:05.252Z,101.214
2022-11-10T00:42:05.284Z,101.143
2022-11-10T00:43:05.315Z,101.286
2022-11-10T00:44:05.347Z,101.143
2022-11-10T00:45:05.404Z,101.214
2022-11-10T00:46:05.423Z,101.214
2022-11-10T00:47:05.449Z,101.357
2022-11-10T00:48:05.504Z,101.143
2022-11-10T00:49:05.518Z,101.143
2022-11-10T00:50:05.542Z,101.143
2022-11-10T00:51:05.576Z,101.143
2022-11-10T00:52:05.609Z,101.143
2022-11-10T00:53:05.660Z,101.214
2022-11-10T00:54:05.671Z,101.357
2022-11-10T00:55:05.696Z,101
2022-11-10T00:56:05.754Z,101.143
2022-11-10T00:57:05.763Z,101.214
2022-11-10T00:58:05.793Z,101.286
2022-11-10T00:59:05.823Z,101.357
2022-11-10T01:00:05.852Z,101.071
2022-11-10T01:01:05.963Z,101.214
2022-11-10T01:02:05.907Z,101
2022-11-10T01:03:05.953Z,101.357
2022-11-10T01:04:05.967Z,101.143
2022-11-10T01:05:06.001Z,101.357
2022-11-10T01:06:06.030Z,101
2022-11-10T01:07:06.133Z,101.214
2022-11-10T01:08:06.114Z,101.286
2022-11-10T01:09:06.121Z,101.286
2022-11-10T01:10:06.160Z,101.214
2022-11-10T01:11:06.181Z,101.143
2022-11-10T01:12:06.208Z,101.143
2022-11-10T01:13:06.251Z,101.071
2022-11-10T01:14:06.283Z,101.214
2022-11-10T01:15:06.283Z,101.143
2022-11-10T01:16:06.317Z,101.214
2022-11-10T01:17:06.350Z,101.143
2022-11-10T01:18:06.403Z,101
2022-11-10T01:19:06.410Z,101.143
2022-11-10T01:20:06.441Z,101.357
2022-11-10T01:21:06.478Z,101.143
2022-11-10T01:22:06.513Z,101.143
2022-11-10T01:23:06.563Z,101.214
2022-11-10T01:24:06.596Z,101.214
2022-11-10T01:25:06.609Z,101.143
2022-11-10T01:26:06.642Z,101.214
2022-11-10T01:27:06.677Z,101.286
2022-11-10T01:28:06.726Z,101.357
2022-11-10T01:29:06.735Z,101.214
2022-11-10T01:30:06.770Z,101.143
2022-11-10T01:31:06.805Z,101.286
2022-11-10T01:32:06.836Z,101.214
2022-11-10T01:33:06.890Z,101.214
2022-11-10T01:34:06.929Z,101.143
2022-11-10T01:35:06.962Z,101.143
2022-11-10T01:36:06.969Z,101.143
2022-11-10T01:37:06.997Z,101.214
2022-11-10T01:38:07.037Z,101.214
2022-11-10T01:39:07.065Z,101.286
2022-11-10T01:40:07.172Z,101.286
2022-11-10T01:41:07.139Z,101.286
2022-11-10T01:42:07.164Z,101.143
2022-11-10T01:43:07.200Z,101.214
2022-11-10T01:44:07.235Z,101.143
2022-11-10T01:45:07.265Z,101.214
2022-11-10T01:46:07.319Z,101.214
2022-11-10T01:47:07.328Z,101.214
2022-11-10T01:48:07.360Z,101.143
2022-11-10T01:49:07.395Z,101.214
2022-11-10T01:50:07.425Z,101.214
2022-11-10T01:51:07.471Z,101.214
2022-11-10T01:52:07.480Z,101.214
2022-11-10T01:53:07.512Z,101.214
2022-11-10T01:54:07.546Z,101.286
2022-11-10T01:55:07.588Z,101.286
2022-11-10T01:56:07.644Z,101.214
2022-11-10T01:57:07.646Z,101.429
2022-11-10T01:58:07.676Z,101.286
2022-11-10T01:59:07.702Z,101.214
2022-11-10T02:00:07.729Z,101.214
2022-11-10T02:01:07.836Z,101.214
2022-11-10T02:02:07.792Z,101.214
2022-11-10T02:03:07.830Z,101.286
2022-11-10T02:04:07.852Z,101.286
2022-11-10T02:05:07.903Z,101.214
2022-11-10T02:06:07.917Z,101.214
2022-11-10T02:07:08.016Z,101.214
2022-11-10T02:08:07.979Z,101.286
2022-11-10T02:09:08.020Z,101.286
2022-11-10T02:10:08.054Z,101.214
2022-11-10T02:11:08.080Z,101.357
2022-11-10T02:12:08.111Z,101.357
2022-11-10T02:13:08.160Z,101.214
2022-11-10T02:14:08.172Z,101.429
2022-11-10T02:15:08.219Z,101.286
2022-11-10T02:16:08.227Z,101.214
2022-11-10T02:17:08.258Z,101.357
2022-11-10T02:18:08.297Z,101.143
2022-11-10T02:19:08.316Z,101.286
2022-11-10T02:20:08.353Z,101.357
2022-11-10T02:21:08.401Z,101.286
2022-11-10T02:22:08.412Z,101.286
2022-11-10T02:23:08.451Z,101.357
2022-11-10T02:24:08.509Z,101.357
2022-11-10T02:25:08.526Z,101.286
2022-11-10T02:26:08.548Z,101.357
2022-11-10T02:27:08.583Z,101.429
2022-11-10T02:28:08.630Z,101.286
2022-11-10T02:29:08.636Z,101.286
2022-11-10T02:30:08.684Z,101.357
2022-11-10T02:31:08.690Z,101.286
2022-11-10T02:32:08.713Z,101.357
2022-11-10T02:33:08.762Z,101.214
2022-11-10T02:34:08.771Z,101.143
2022-11-10T02:35:08.819Z,101.143
2022-11-10T02:36:08.835Z,101.286
2022-11-10T02:37:08.861Z,101.286
2022-11-10T02:38:08.890Z,101.357
2022-11-10T02:39:08.925Z,101.286
2022-11-10T02:40:08.978Z,101.286
2022-11-10T02:41:08.998Z,101.286
2022-11-10T02:42:09.022Z,101.357
2022-11-10T02:43:09.056Z,101.286
2022-11-10T02:44:09.086Z,101.286
2022-11-10T02:45:09.137Z,101.429
2022-11-10T02:46:09.140Z,101.286
2022-11-10T02:47:09.172Z,101.357
2022-11-10T02:48:09.205Z,101.429
2022-11-10T02:49:09.228Z,101.5
2022-11-10T02:50:09.258Z,101.214
2022-11-10T02:51:09.282Z,101.286
2022-11-10T02:52:09.318Z,101.286
2022-11-10T02:53:09.341Z,101.429
2022-11-10T02:54:09.395Z,101.286
2022-11-10T02:55:09.405Z,101.429
2022-11-10T02:56:09.433Z,101.286
2022-11-10T02:57:09.470Z,101.357
2022-11-10T02:58:09.526Z,101.357
2022-11-10T02:59:09.541Z,101.357
2022-11-10T03:00:09.574Z,101.357
2022-11-10T03:01:09.691Z,101.429
2022-11-10T03:02:09.648Z,101.357
2022-11-10T03:03:09.664Z,101.357
2022-11-10T03:04:09.711Z,101.357
2022-11-10T03:05:09.724Z,101.357
2022-11-10T03:06:09.767Z,101.286
2022-11-10T03:07:09.846Z,101.286
2022-11-10T03:08:09.816Z,101.357
2022-11-10T03:09:09.866Z,101.286
2022-11-10T03:10:09.877Z,101.286
2022-11-10T03:11:09.898Z,101.214
2022-11-10T03:12:09.936Z,101.214
2022-11-10T03:13:09.968Z,101.286
2022-11-10T03:14:10.028Z,101.214
2022-11-10T03:15:10.037Z,101.214
2022-11-10T03:16:10.092Z,101.214
2022-11-10T03:17:10.104Z,101.214
2022-11-10T03:18:10.157Z,101.214
2022-11-10T03:19:10.171Z,101.214
2022-11-10T03:20:10.208Z,101.214
2022-11-10T03:21:10.258Z,101.214
2022-11-10T03:22:10.317Z,101.214
2022-11-10T03:23:10.316Z,101.214
2022-11-10T03:24:10.344Z,101.5
2022-11-10T03:25:10.382Z,101.214
2022-11-10T03:26:10.409Z,101.214
2022-11-10T03:27:10.455Z,101.214
2022-11-10T03:28:10.477Z,101.429
2022-11-10T03:29:10.508Z,101.429
2022-11-10T03:30:10.540Z,101.286
2022-11-10T03:31:10.572Z,101.357
2022-11-10T03:32:10.621Z,101.429
2022-11-10T03:33:10.632Z,101.429
2022-11-10T03:34:10.668Z,101.286
2022-11-10T03:35:10.720Z,101.214
2022-11-10T03:36:10.731Z,101.357
2022-11-10T03:37:10.769Z,101.429
2022-11-10T03:38:10.800Z,101.429
2022-11-10T03:39:10.818Z,101.286
2022-11-10T03:40:10.877Z,101.357
2022-11-10T03:41:19.686Z,101.429
2022-11-10T03:42:10.915Z,101.429
2022-11-10T03:43:10.944Z,101.286
2022-11-10T03:44:10.982Z,101.286
2022-11-10T03:45:11.032Z,101.286
2022-11-10T03:46:11.072Z,101.286
2022-11-10T03:47:11.086Z,101.286
2022-11-10T03:48:11.129Z,101.429
2022-11-10T03:49:11.140Z,101.286
2022-11-10T03:50:11.178Z,101.286
2022-11-10T03:51:11.228Z,101.286
2022-11-10T03:52:11.236Z,101.286
2022-11-10T03:53:11.270Z,101.286
2022-11-10T03:54:11.300Z,101.286
2022-11-10T03:55:11.331Z,101.143
2022-11-10T03:56:11.383Z,101.286
2022-11-10T03:57:11.389Z,101.286
2022-11-10T03:58:11.425Z,101.357
2022-11-10T03:59:11.453Z,101.357
2022-11-10T04:00:11.490Z,101.357
2022-11-10T04:01:11.549Z,101.357
2022-11-10T04:02:11.621Z,101.286
2022-11-10T04:03:11.572Z,101.357
2022-11-10T04:04:11.608Z,101.5
2022-11-10T04:05:11.629Z,101.429
2022-11-10T04:06:11.682Z,101.286
2022-11-10T04:07:11.734Z,101.357
2022-11-10T04:08:11.728Z,101.357
2022-11-10T04:09:11.759Z,101.357
2022-11-10T04:10:11.792Z,101.357
2022-11-10T04:11:11.841Z,101.286
2022-11-10T04:12:11.876Z,101.429
2022-11-10T04:13:11.897Z,101.357
2022-11-10T04:14:11.924Z,101.357
2022-11-10T04:15:11.957Z,101.286
2022-11-10T04:16:11.998Z,101.5
2022-11-10T04:17:12.031Z,101.429
2022-11-10T04:18:12.073Z,101.429
2022-11-10T04:19:12.127Z,101.5
2022-11-10T04:20:12.148Z,101.357
2022-11-10T04:21:12.187Z,101.429
2022-11-10T04:22:12.205Z,101.357
2022-11-10T04:23:12.260Z,101.429
2022-11-10T04:24:12.269Z,101.214
2022-11-10T04:25:12.318Z,101.5
2022-11-10T04:26:12.333Z,101.429
2022-11-10T04:27:12.362Z,101.429
2022-11-10T04:28:12.396Z,101.429
2022-11-10T04:29:12.431Z,101.429
2022-11-10T04:30:12.472Z,101.357
2022-11-10T04:31:12.506Z,101.429
2022-11-10T04:32:12.515Z,101.429
2022-11-10T04:33:12.556Z,101.429
2022-11-10T04:34:12.592Z,101.429
2022-11-10T04:35:12.615Z,101.429
2022-11-10T04:36:12.675Z,101.429
2022-11-10T04:37:12.683Z,101.429
2022-11-10T04:38:12.720Z,101.429
2022-11-10T04:39:12.752Z,101.429
2022-11-10T04:40:12.778Z,101.357
2022-11-10T04:41:12.838Z,101.357
2022-11-10T04:42:12.837Z,101.357
2022-11-10T04:43:12.882Z,101.357
2022-11-10T04:44:12.900Z,101.429
2022-11-10T04:45:12.930Z,101.429
2022-11-10T04:46:12.983Z,101.286
2022-11-10T04:47:12.986Z,101.286
2022-11-10T04:48:13.022Z,101.357
2022-11-10T04:49:13.060Z,101.357
2022-11-10T04:50:13.088Z,101.286
2022-11-10T04:51:13.159Z,101.286
2022-11-10T04:52:13.159Z,101.357
2022-11-10T04:53:13.188Z,101.357
2022-11-10T04:54:13.194Z,101.286
2022-11-10T04:55:13.223Z,101.357
2022-11-10T04:56:13.253Z,101.429
2022-11-10T04:57:13.304Z,101.429
2022-11-10T04:58:13.337Z,101.429
2022-11-10T04:59:13.339Z,101.357
2022-11-10T05:00:13.373Z,101.429
2022-11-10T05:01:13.438Z,101.286
2022-11-10T05:02:13.441Z,101.286
2022-11-10T05:03:13.495Z,101.286
2022-11-10T05:04:13.508Z,101.286
2022-11-10T05:05:13.562Z,101.571
2022-11-10T05:06:13.566Z,101.286
2022-11-10T05:07:13.733Z,101.571
2022-11-10T05:08:13.646Z,101.5
2022-11-10T05:09:13.660Z,101.571
2022-11-10T05:10:13.687Z,101.643
2022-11-10T05:11:13.740Z,101.5
2022-11-10T05:12:17.337Z,101.429
2022-11-10T05:13:13.787Z,101.714
2022-11-10T05:14:13.812Z,101.429
2022-11-10T05:15:13.867Z,101.429
2022-11-10T05:16:13.896Z,101.571
2022-11-10T05:17:13.920Z,101.5
2022-11-10T05:18:13.947Z,101.5
2022-11-10T05:19:13.970Z,101.429
2022-11-10T05:20:14.013Z,101.357
2022-11-10T05:21:14.021Z,101.571
2022-11-10T05:22:14.053Z,101.429
2022-11-10T05:23:14.080Z,101.357
2022-11-10T05:24:14.114Z,101.5
2022-11-10T05:25:14.168Z,101.5
2022-11-10T05:26:14.172Z,101.643
2022-11-10T05:27:14.222Z,101.5
2022-11-10T05:28:14.237Z,101.5
2022-11-10T05:29:14.271Z,101.643
2022-11-10T05:30:14.307Z,101.357
2022-11-10T05:31:14.353Z,101.5
2022-11-10T05:32:14.372Z,101.643
2022-11-10T05:33:14.405Z,101.643
2022-11-10T05:34:14.453Z,101.357
2022-11-10T05:35:14.487Z,101.571
2022-11-10T05:36:14.509Z,101.5
2022-11-10T05:37:14.531Z,101.643
2022-11-10T05:38:14.563Z,101.5
2022-11-10T05:39:14.610Z,101.5
2022-11-10T05:40:14.618Z,101.571
2022-11-10T05:41:14.655Z,101.5
2022-11-10T05:42:14.699Z,101.286
2022-11-10T05:43:14.706Z,101.5
2022-11-10T05:44:14.753Z,101.5
2022-11-10T05:45:14.770Z,101.571
2022-11-10T05:46:14.803Z,101.5
2022-11-10T05:47:14.846Z,101.5
2022-11-10T05:48:14.858Z,101.643
2022-11-10T05:49:14.888Z,101.571
2022-11-10T05:50:14.925Z,101.571
2022-11-10T05:51:14.956Z,101.5
2022-11-10T05:52:14.985Z,101.571
2022-11-10T05:53:15.016Z,101.571
2022-11-10T05:54:15.067Z,101.571
2022-11-10T05:55:15.078Z,101.571
2022-11-10T05:56:15.109Z,101.429
2022-11-10T05:57:15.145Z,101.357
2022-11-10T05:58:15.176Z,101.5
2022-11-10T05:59:15.231Z,101.571
2022-11-10T06:00:15.240Z,101.714
2022-11-10T06:01:15.276Z,101.643
2022-11-10T06:02:15.299Z,101.571
2022-11-10T06:03:15.392Z,101.714
2022-11-10T06:04:15.379Z,101.571
2022-11-10T06:05:15.410Z,101.714
2022-11-10T06:06:15.426Z,101.5
2022-11-10T06:07:15.490Z,101.643
2022-11-10T06:08:15.488Z,101.571
2022-11-10T06:09:15.519Z,101.643
2022-11-10T06:10:15.570Z,101.643
2022-11-10T06:11:15.582Z,101.714
2022-11-10T06:12:15.610Z,101.571
2022-11-10T06:13:15.654Z,101.643
2022-11-10T06:14:15.667Z,101.643
2022-11-10T06:15:15.722Z,101.571
2022-11-10T06:16:15.728Z,101.571
2022-11-10T06:17:15.755Z,101.643
2022-11-10T06:18:15.792Z,101.643
2022-11-10T06:19:15.822Z,101.571
2022-11-10T06:20:15.873Z,101.643
2022-11-10T06:21:15.879Z,101.571
2022-11-10T06:22:15.915Z,101.643
2022-11-10T06:23:15.957Z,101.643
2022-11-10T06:24:15.987Z,101.643
2022-11-10T06:25:16.037Z,101.643
2022-11-10T06:26:16.049Z,101.714
2022-11-10T06:27:16.070Z,101.571
2022-11-10T06:28:16.108Z,101.571
2022-11-10T06:29:16.138Z,101.643
2022-11-10T06:30:16.190Z,101.571
2022-11-10T06:31:16.202Z,101.643
2022-11-10T06:32:16.249Z,101.643
2022-11-10T06:33:16.280Z,101.643
2022-11-10T06:34:16.324Z,101.571
2022-11-10T06:35:16.347Z,101.643
2022-11-10T06:36:16.386Z,101.5
2022-11-10T06:37:16.425Z,101.571
2022-11-10T06:38:16.449Z,101.571
2022-11-10T06:39:16.487Z,101.643
2022-11-10T06:40:16.546Z,101.571
2022-11-10T06:41:18.995Z,101.643
2022-11-10T06:42:16.571Z,101.571
2022-11-10T06:43:16.600Z,101.643
2022-11-10T06:44:16.635Z,101.643
2022-11-10T06:45:16.688Z,101.571
2022-11-10T06:46:16.703Z,101.571
2022-11-10T06:47:16.739Z,101.571
2022-11-10T06:48:16.789Z,101.643
2022-11-10T06:49:16.813Z,101.643
2022-11-10T06:50:16.831Z,101.571
2022-11-10T06:51:16.863Z,101.643
2022-11-10T06:52:16.892Z,101.714
2022-11-10T06:53:16.942Z,101.643
2022-11-10T06:54:16.949Z,101.714
2022-11-10T06:55:16.983Z,101.714
2022-11-10T06:56:17.021Z,101.643
2022-11-10T06:57:17.024Z,101.786
2022-11-10T06:58:17.052Z,101.786
2022-11-10T06:59:17.083Z,101.714
2022-11-10T07:00:17.109Z,101.714
2022-11-10T07:01:22.112Z,101.786
2022-11-10T07:02:17.169Z,101.643
2022-11-10T07:03:17.218Z,101.786
2022-11-10T07:04:20.201Z,101.857
2022-11-10T07:05:17.287Z,101.714
2022-11-10T07:06:17.313Z,101.714
2022-11-10T07:07:17.340Z,101.714
2022-11-10T07:08:17.364Z,101.786
2022-11-10T07:09:17.396Z,101.786
2022-11-10T07:10:17.439Z,101.5
2022-11-10T07:11:17.485Z,101.857
2022-11-10T07:12:17.492Z,101.786
2022-11-10T07:13:17.527Z,101.714
2022-11-10T07:14:17.566Z,101.786
2022-11-10T07:15:17.596Z,101.5
2022-11-10T07:16:23.252Z,101.643
2022-11-10T07:17:17.668Z,101.643
2022-11-10T07:18:17.711Z,101.571
2022-11-10T07:19:17.728Z,101.786
2022-11-10T07:20:17.757Z,101.857
2022-11-10T07:21:17.800Z,101.571
2022-11-10T07:22:17.821Z,101.643
2022-11-10T07:23:17.871Z,101.786
2022-11-10T07:24:17.873Z,101.714
2022-11-10T07:25:17.917Z,101.643
2022-11-10T07:26:17.944Z,101.786
2022-11-10T07:27:17.994Z,101.786
2022-11-10T07:28:17.996Z,101.714
2022-11-10T07:29:18.034Z,101.643
2022-11-10T07:30:18.070Z,101.857
2022-11-10T07:31:18.101Z,101.714
2022-11-10T07:32:18.163Z,101.786
2022-11-10T07:33:18.174Z,101.786
2022-11-10T07:34:18.194Z,101.857
2022-11-10T07:35:18.231Z,101.929
2022-11-10T07:36:18.260Z,101.929
2022-11-10T07:37:18.311Z,101.786
2022-11-10T07:38:18.324Z,101.571
2022-11-10T07:39:18.356Z,101.786
2022-11-10T07:40:18.387Z,101.857
2022-11-10T07:41:18.432Z,101.857
2022-11-10T07:42:18.449Z,101.786
2022-11-10T07:43:18.554Z,101.929
2022-11-10T07:44:18.506Z,101.857
2022-11-10T07:45:18.537Z,101.786
2022-11-10T07:46:18.574Z,101.786
2022-11-10T07:47:18.620Z,101.786
2022-11-10T07:48:18.654Z,101.786
2022-11-10T07:49:18.668Z,101.786
2022-11-10T07:50:18.703Z,101.5
2022-11-10T07:51:18.732Z,101.786
2022-11-10T07:52:18.766Z,101.786
2022-11-10T07:53:18.885Z,101.786
2022-11-10T07:54:18.836Z,101.643
2022-11-10T07:55:18.856Z,101.643
2022-11-10T07:56:18.884Z,101.857
2022-11-10T07:57:18.926Z,101.857
2022-11-10T07:58:18.937Z,101.857
2022-11-10T07:59:18.966Z,101.786
2022-11-10T08:00:19.000Z,101.786
2022-11-10T08:01:19.139Z,101.929
2022-11-10T08:02:19.087Z,101.857
2022-11-10T08:03:19.357Z,101.571
2022-11-10T08:04:19.128Z,101.929
2022-11-10T08:05:19.172Z,101.857
2022-11-10T08:06:19.292Z,101.857
2022-11-10T08:07:19.330Z,101.929
2022-11-10T08:08:19.258Z,101.714
2022-11-10T08:09:19.288Z,101.929
2022-11-10T08:10:19.314Z,101.929
2022-11-10T08:11:19.340Z,101.714
2022-11-10T08:12:19.388Z,101.643
2022-11-10T08:13:19.536Z,101.786
2022-11-10T08:14:19.443Z,101.929
2022-11-10T08:15:19.461Z,101.786
2022-11-10T08:16:19.497Z,101.929
2022-11-10T08:17:19.553Z,101.929
2022-11-10T08:18:19.570Z,101.929
2022-11-10T08:19:19.616Z,101.786
2022-11-10T08:20:19.630Z,101.929
2022-11-10T08:21:19.660Z,101.929
2022-11-10T08:22:19.707Z,101.786
2022-11-10T08:23:20.046Z,101.786
2022-11-10T08:24:19.745Z,101.786
2022-11-10T08:25:19.840Z,101.929
2022-11-10T08:26:19.812Z,101.786
2022-11-10T08:27:19.860Z,101.857
2022-11-10T08:28:19.876Z,101.929
2022-11-10T08:29:19.906Z,101.643
2022-11-10T08:30:19.943Z,101.714
2022-11-10T08:31:19.980Z,102
2022-11-10T08:32:20.029Z,101.857
2022-11-10T08:33:20.279Z,101.929
2022-11-10T08:34:20.061Z,101.714
2022-11-10T08:35:20.111Z,101.857
2022-11-10T08:36:20.116Z,101.929
2022-11-10T08:37:20.158Z,101.786
2022-11-10T08:38:20.188Z,101.714
2022-11-10T08:39:36.517Z,101.857
2022-11-10T08:40:20.279Z,101.786
2022-11-10T08:41:20.296Z,101.714
2022-11-10T08:42:20.323Z,101.786
2022-11-10T08:43:20.639Z,102
2022-11-10T08:44:21.058Z,101.714
2022-11-10T08:45:20.423Z,101.929
2022-11-10T08:46:20.451Z,101.786
2022-11-10T08:47:20.490Z,101.857
2022-11-10T08:48:20.530Z,101.857
2022-11-10T08:49:20.570Z,101.857
2022-11-10T08:50:20.582Z,101.857
2022-11-10T08:51:20.610Z,101.857
2022-11-10T08:52:20.643Z,101.857
2022-11-10T08:53:21.112Z,101.929
2022-11-10T08:54:20.705Z,102
2022-11-10T08:55:20.726Z,102
2022-11-10T08:56:20.768Z,102
2022-11-10T08:57:20.781Z,101.929
2022-11-10T08:58:20.813Z,101.714
2022-11-10T08:59:20.840Z,101.786
2022-11-10T09:00:20.872Z,102
2022-11-10T09:01:20.919Z,101.786
2022-11-10T09:02:20.932Z,101.857
2022-11-10T09:03:21.160Z,101.857
2022-11-10T09:04:21.073Z,101.857
2022-11-10T09:05:21.016Z,101.714
2022-11-10T09:06:21.063Z,102.071
2022-11-10T09:07:21.069Z,101.857
2022-11-10T09:08:21.097Z,101.786
2022-11-10T09:09:21.131Z,101.714
2022-11-10T09:10:21.150Z,102
2022-11-10T09:11:21.199Z,101.786
2022-11-10T09:12:21.217Z,101.786
2022-11-10T09:13:26.056Z,101.786
2022-11-10T09:14:21.271Z,101.857
2022-11-10T09:15:21.303Z,101.857
2022-11-10T09:16:21.352Z,101.929
2022-11-10T09:17:21.366Z,101.786
2022-11-10T09:18:21.407Z,101.857
2022-11-10T09:19:21.441Z,101.929
2022-11-10T09:20:21.477Z,101.857
2022-11-10T09:21:21.503Z,101.929
2022-11-10T09:22:21.553Z,101.857
2022-11-10T09:23:21.975Z,101.929
2022-11-10T09:24:21.601Z,101.857
2022-11-10T09:25:21.653Z,101.929
2022-11-10T09:26:21.675Z,101.786
2022-11-10T09:27:21.686Z,101.857
2022-11-10T09:28:21.729Z,101.857
2022-11-10T09:29:21.753Z,101.857
2022-11-10T09:30:21.788Z,101.786
2022-11-10T09:31:21.838Z,101.857
2022-11-10T09:32:21.887Z,102.071
2022-11-10T09:33:22.399Z,101.786
2022-11-10T09:34:21.910Z,102.071
2022-11-10T09:35:21.939Z,101.714
2022-11-10T09:36:21.962Z,101.786
2022-11-10T09:37:22.049Z,101.857
2022-11-10T09:38:22.308Z,102
2022-11-10T09:39:22.062Z,101.857
2022-11-10T09:40:22.091Z,102.071
2022-11-10T09:41:22.138Z,101.857
2022-11-10T09:42:22.170Z,101.857
2022-11-10T09:43:22.382Z,101.857
2022-11-10T09:44:22.224Z,101.786
2022-11-10T09:45:22.240Z,101.857
2022-11-10T09:46:22.268Z,101.714
2022-11-10T09:47:50.755Z,101.857
2022-11-10T09:48:22.684Z,101.857
2022-11-10T09:49:22.347Z,101.857
2022-11-10T09:50:22.393Z,101.857
2022-11-10T09:51:22.405Z,101.929
2022-11-10T09:52:22.438Z,101.857
2022-11-10T09:53:22.490Z,101.929
2022-11-10T09:54:22.509Z,101.857
2022-11-10T09:55:22.561Z,101.929
2022-11-10T09:56:22.572Z,101.929
2022-11-10T09:57:22.602Z,101.857
2022-11-10T09:58:23.135Z,101.929
2022-11-10T09:59:22.662Z,101.786
2022-11-10T10:00:22.706Z,101.929
2022-11-10T10:01:22.770Z,101.929
2022-11-10T10:02:22.756Z,101.929
2022-11-10T10:03:22.782Z,101.929
2022-11-10T10:04:22.813Z,101.929
2022-11-10T10:05:22.849Z,101.929
2022-11-10T10:06:22.903Z,101.929
2022-11-10T10:07:22.964Z,101.786
2022-11-10T10:08:23.236Z,101.929
2022-11-10T10:09:22.981Z,101.929
2022-11-10T10:10:23.016Z,101.929
2022-11-10T10:11:23.060Z,101.929
2022-11-10T10:12:23.067Z,101.929
2022-11-10T10:13:23.090Z,101.929
2022-11-10T10:14:23.126Z,101.929
2022-11-10T10:15:25.722Z,101.857
2022-11-10T10:16:23.263Z,102
2022-11-10T10:17:26.806Z,102
2022-11-10T10:18:23.709Z,102
2022-11-10T10:19:23.284Z,102
2022-11-10T10:20:23.323Z,101.929
2022-11-10T10:21:23.372Z,102
2022-11-10T10:22:23.375Z,101.929
2022-11-10T10:23:40.372Z,102
2022-11-10T10:24:23.446Z,102
2022-11-10T10:25:23.491Z,102
2022-11-10T10:26:23.611Z,101.929
2022-11-10T10:27:23.522Z,102
2022-11-10T10:28:23.975Z,102
2022-11-10T10:29:23.582Z,102
2022-11-10T10:30:23.702Z,101.786
2022-11-10T10:31:23.636Z,102
2022-11-10T10:32:23.734Z,102
2022-11-10T10:33:23.705Z,101.929
2022-11-10T10:34:23.739Z,102.071
2022-11-10T10:35:23.776Z,101.929
2022-11-10T10:36:23.784Z,101.929
2022-11-10T10:37:23.819Z,102
2022-11-10T10:38:24.126Z,101.857
2022-11-10T10:39:23.884Z,102
2022-11-10T10:40:23.920Z,101.857
2022-11-10T10:41:24.183Z,101.857
2022-11-10T10:42:23.991Z,101.857
2022-11-10T10:43:24.002Z,101.929
2022-11-10T10:44:24.036Z,101.929
2022-11-10T10:45:24.119Z,101.929
2022-11-10T10:46:24.095Z,102
2022-11-10T10:47:24.146Z,101.857
2022-11-10T10:48:24.467Z,102
2022-11-10T10:49:29.200Z,101.786
2022-11-10T10:50:24.233Z,101.929
2022-11-10T10:51:24.258Z,101.929
2022-11-10T10:52:24.314Z,101.929
2022-11-10T10:53:24.323Z,101.929
2022-11-10T10:54:24.349Z,102.071
2022-11-10T10:55:24.385Z,101.929
2022-11-10T10:56:24.425Z,101.929
2022-11-10T10:57:24.474Z,101.929
2022-11-10T10:58:25.080Z,101.929
2022-11-10T10:59:24.518Z,101.929
2022-11-10T11:00:24.545Z,102
2022-11-10T11:01:24.649Z,102
2022-11-10T11:02:24.612Z,101.857
2022-11-10T11:03:24.637Z,102
2022-11-10T11:04:24.669Z,102
2022-11-10T11:05:24.701Z,101.857
2022-11-10T11:06:24.734Z,102
2022-11-10T11:07:24.767Z,101.857
2022-11-10T11:08:25.107Z,101.929
2022-11-10T11:09:24.819Z,101.929
2022-11-10T11:10:24.858Z,101.857
2022-11-10T11:11:24.881Z,102
2022-11-10T11:12:24.940Z,102
2022-11-10T11:13:24.939Z,101.786
2022-11-10T11:14:24.980Z,102
2022-11-10T11:15:25.024Z,102
2022-11-10T11:16:25.031Z,102
2022-11-10T11:17:25.172Z,101.857
2022-11-10T11:18:25.494Z,102.071
2022-11-10T11:19:25.130Z,101.857
2022-11-10T11:20:25.166Z,102.071
2022-11-10T11:21:25.180Z,101.929
2022-11-10T11:22:25.209Z,101.929
2022-11-10T11:23:25.232Z,101.786
2022-11-10T11:24:25.273Z,101.929
2022-11-10T11:25:25.321Z,102
2022-11-10T11:26:25.345Z,101.786
2022-11-10T11:27:25.353Z,101.929
2022-11-10T11:28:25.676Z,101.786
2022-11-10T11:29:25.407Z,101.857
2022-11-10T11:30:25.439Z,101.857
2022-11-10T11:31:25.493Z,101.857
2022-11-10T11:32:25.500Z,101.857
2022-11-10T11:33:25.530Z,101.786
2022-11-10T11:34:25.558Z,101.857
2022-11-10T11:35:25.611Z,101.929
2022-11-10T11:36:25.621Z,101.929
2022-11-10T11:37:25.651Z,102.071
2022-11-10T11:38:25.969Z,101.857
2022-11-10T11:39:25.702Z,101.929
2022-11-10T11:40:25.750Z,101.929
2022-11-10T11:41:25.772Z,101.929
2022-11-10T11:42:25.794Z,102
2022-11-10T11:43:25.837Z,101.857
2022-11-10T11:44:25.857Z,101.929
2022-11-10T11:45:25.907Z,102.143
2022-11-10T11:46:25.919Z,101.857
2022-11-10T11:47:25.943Z,101.786
2022-11-10T11:48:26.106Z,101.857
2022-11-10T11:49:26.024Z,101.929
2022-11-10T11:50:26.029Z,102
2022-11-10T11:51:26.054Z,102.071
2022-11-10T11:52:26.090Z,101.929
2022-11-10T11:53:26.111Z,101.857
2022-11-10T11:54:26.173Z,101.786
2022-11-10T11:55:26.203Z,101.857
2022-11-10T11:56:26.216Z,101.857
2022-11-10T11:57:26.254Z,102.071
2022-11-10T11:58:26.446Z,101.929
2022-11-10T11:59:26.333Z,101.929
2022-11-10T12:00:26.380Z,101.857
2022-11-10T12:01:26.393Z,102
2022-11-10T12:02:26.482Z,101.857
2022-11-10T12:03:26.450Z,101.857
2022-11-10T12:04:26.490Z,101.857
2022-11-10T12:05:26.521Z,101.857
2022-11-10T12:06:26.525Z,102.071
2022-11-10T12:07:26.554Z,101.857
2022-11-10T12:08:27.160Z,101.857
2022-11-10T12:09:26.623Z,101.857
2022-11-10T12:10:26.675Z,102.071
2022-11-10T12:11:26.679Z,101.929
2022-11-10T12:12:26.710Z,101.929
2022-11-10T12:13:26.742Z,101.929